Time;durP1;ratioP1;P1;durP2;ratioP2;P2;SDS_P1;SDS_P2;PMS_P1;PMS_P2;Temp;Humidity;BMP_temperature;BMP_pressure;BME280_temperature;BME280_humidity;BME280_pressure;Samples;Min_cycle;Max_cycle;Signal;HPM_P1;HPM_P2
2022/05/14 00:00:56;;;;;;;8.70;5.00;;;;;;;13.92;57.21;96876.59;100801;1268;5025382;-80
2022/05/14 00:03:31;;;;;;;8.10;5.00;;;;;;;13.89;57.47;96879.41;103476;1267;5417003;-80
2022/05/14 00:06:04;;;;;;;7.30;5.10;;;;;;;13.87;57.53;96882.27;104901;1267;2302553;-80
2022/05/14 00:08:35;;;;;;;7.40;4.80;;;;;;;13.85;57.38;96879.17;106382;1268;2079417;-80
2022/05/14 00:14:06;;;;;;;9.70;4.80;;;;;;;13.77;57.22;96881.05;107630;1268;72241;-81
2022/05/14 00:16:44;;;;;;;7.20;4.70;;;;;;;13.75;57.25;96880.98;107916;1268;31888;-80
2022/05/14 00:19:24;;;;;;;7.50;5.20;;;;;;;13.73;57.14;96880.38;103213;1268;3604811;-81
2022/05/14 00:21:58;;;;;;;7.50;5.00;;;;;;;13.71;56.93;96887.55;99186;1267;6600237;-81
2022/05/14 00:24:32;;;;;;;7.00;5.20;;;;;;;13.69;57.04;96888.23;97008;1268;5361793;-81
2022/05/14 00:27:06;;;;;;;11.60;5.40;;;;;;;13.68;56.75;96887.93;99680;1268;5418097;-80
2022/05/14 00:29:42;;;;;;;7.30;4.50;;;;;;;13.68;56.70;96890.80;107516;1268;141605;-80
2022/05/14 00:32:16;;;;;;;8.70;5.00;;;;;;;13.62;56.51;96890.87;102721;1267;2582661;-81
2022/05/14 00:34:48;;;;;;;7.80;4.60;;;;;;;13.59;56.50;96888.70;104283;1267;2153296;-80
2022/05/14 00:37:19;;;;;;;6.70;4.80;;;;;;;13.57;56.53;96886.50;105959;1267;2121621;-80
2022/05/14 00:39:52;;;;;;;7.90;5.30;;;;;;;13.57;56.47;96890.54;97848;1268;5817003;-81
2022/05/14 00:42:24;;;;;;;8.60;5.10;;;;;;;13.56;56.55;96891.47;106180;1268;1273421;-80
2022/05/14 00:44:59;;;;;;;11.70;5.60;;;;;;;13.50;56.68;96888.14;102310;1267;4499396;-81
2022/05/14 00:47:34;;;;;;;13.80;5.20;;;;;;;13.46;56.94;96889.05;95393;1268;6504764;-81
2022/05/14 00:50:10;;;;;;;7.40;5.10;;;;;;;13.44;56.98;96886.48;107592;1267;210016;-81
2022/05/14 00:52:44;;;;;;;8.80;4.90;;;;;;;13.47;57.14;96890.31;104590;1267;2138695;-80
2022/05/14 00:55:16;;;;;;;6.80;5.00;;;;;;;13.43;57.07;96891.34;102998;1268;2718303;-80
2022/05/14 00:57:48;;;;;;;9.40;5.30;;;;;;;13.43;57.19;96898.59;102767;1268;4344397;-80
2022/05/14 01:00:29;;;;;;;8.20;5.50;;;;;;;13.37;57.45;96897.65;103572;1268;4690914;-80
2022/05/14 01:02:59;;;;;;;;;;;;;;;13.35;57.51;96899.59;97362;1268;5472154;-81
2022/05/14 01:05:31;;;;;;;10.50;5.20;;;;;;;13.35;57.43;96899.64;99514;1267;4591389;-80
2022/05/14 01:08:13;;;;;;;8.90;5.60;;;;;;;13.36;57.44;96899.25;104974;1268;2057839;-80
2022/05/14 01:10:49;;;;;;;11.70;5.70;;;;;;;13.35;57.45;96897.40;104576;1268;2005916;-81
2022/05/14 01:13:24;;;;;;;11.00;5.50;;;;;;;13.34;57.20;96898.64;102395;1267;2369718;-80
2022/05/14 01:16:01;;;;;;;7.10;4.80;;;;;;;13.35;57.36;96900.70;107367;1267;194698;-81
2022/05/14 01:18:33;;;;;;;7.00;5.20;;;;;;;13.38;57.52;96896.52;103071;1267;3574464;-81
2022/05/14 01:21:15;;;;;;;8.30;4.80;;;;;;;13.42;57.58;96890.72;100892;1268;5629841;-80
2022/05/14 01:26:58;;;;;;;9.20;5.50;;;;;;;13.46;57.67;96885.38;105594;1268;1397677;-80
2022/05/14 01:29:29;;;;;;;9.20;5.20;;;;;;;13.45;57.65;96887.63;106385;1267;1602176;-80
2022/05/14 01:32:00;;;;;;;8.90;4.70;;;;;;;13.51;57.62;96886.05;106610;1267;1323198;-81
2022/05/14 01:34:36;;;;;;;8.00;4.80;;;;;;;13.58;57.54;96886.27;105178;1268;1822251;-81
2022/05/14 01:37:10;;;;;;;9.60;4.70;;;;;;;13.55;57.34;96886.36;105272;1267;1792010;-81
2022/05/14 01:39:42;;;;;;;10.20;5.20;;;;;;;13.52;57.32;96888.70;104839;1268;2408532;-80
2022/05/14 01:42:15;;;;;;;7.00;5.00;;;;;;;13.54;57.49;96891.07;106250;1268;1389199;-81
2022/05/14 01:44:48;;;;;;;6.70;4.80;;;;;;;13.49;57.54;96893.42;101352;1267;2168209;-81
2022/05/14 01:47:20;;;;;;;7.40;4.80;;;;;;;13.41;57.59;96891.80;107377;1268;144630;-80
2022/05/14 01:49:52;;;;;;;10.00;4.80;;;;;;;13.34;57.64;96898.77;104940;1267;2356475;-80
2022/05/14 01:52:24;;;;;;;8.10;4.90;;;;;;;13.28;57.83;96901.36;104438;1267;2133436;-81
2022/05/14 01:57:45;;;;;;;9.40;4.40;;;;;;;13.09;58.17;96904.56;104454;1267;2451626;-81
2022/05/14 02:00:22;;;;;;;7.80;4.90;;;;;;;12.97;58.30;96901.79;103369;1267;2147288;-80
2022/05/14 02:02:55;;;;;;;8.90;4.90;;;;;;;12.83;58.61;96902.34;104236;1267;2141060;-80
2022/05/14 02:05:35;;;;;;;8.30;4.80;;;;;;;12.71;58.99;96903.98;97911;1267;4936857;-80
2022/05/14 02:08:08;;;;;;;7.80;5.40;;;;;;;12.60;59.38;96902.61;105991;1268;1341129;-80
2022/05/14 02:10:40;;;;;;;10.60;4.90;;;;;;;12.57;59.65;96895.53;102107;1267;5144133;-77
2022/05/14 02:13:16;;;;;;;8.90;5.00;;;;;;;12.47;59.63;96895.03;104900;1267;1975099;-80
2022/05/14 02:15:50;;;;;;;6.70;5.40;;;;;;;12.45;59.88;96896.23;103870;1267;1769633;-81
2022/05/14 02:18:27;;;;;;;9.90;4.80;;;;;;;12.37;60.09;96897.52;100752;1268;5103640;-80
2022/05/14 02:21:00;;;;;;;7.90;5.10;;;;;;;12.29;60.29;96899.38;107316;1267;130868;-81
2022/05/14 02:23:33;;;;;;;5.60;4.40;;;;;;;12.02;60.55;96897.62;107500;1267;122284;-81
2022/05/14 02:26:08;;;;;;;8.30;5.00;;;;;;;11.71;61.61;96899.02;101981;1267;2366551;-81
2022/05/14 02:28:41;;;;;;;6.70;4.40;;;;;;;11.44;62.38;96898.27;100526;1266;5063885;-80
2022/05/14 02:31:12;;;;;;;7.80;4.80;;;;;;;11.27;63.56;96897.27;105957;1267;2098123;-80
2022/05/14 02:33:45;;;;;;;8.40;4.60;;;;;;;11.09;64.78;96897.31;105786;1267;2102116;-80
2022/05/14 02:36:16;;;;;;;5.60;4.20;;;;;;;10.92;65.10;96893.09;104922;1267;1777909;-80
2022/05/14 02:38:47;;;;;;;6.50;5.20;;;;;;;10.75;65.88;96893.02;107461;1267;178324;-80
2022/05/14 02:41:26;;;;;;;8.70;5.90;;;;;;;10.59;66.32;96890.23;105163;1267;1883486;-80
2022/05/14 02:43:57;;;;;;;7.30;5.30;;;;;;;10.58;66.90;96891.09;105600;1268;2614368;-80
2022/05/14 02:46:28;;;;;;;8.10;5.20;;;;;;;10.56;67.02;96890.83;104945;1267;2088035;-81
2022/05/14 02:49:01;;;;;;;10.70;5.10;;;;;;;10.49;66.65;96891.16;107858;1267;36761;-80
2022/05/14 02:51:32;;;;;;;7.50;5.50;;;;;;;10.52;67.52;96887.17;104803;1267;2063694;-80
2022/05/14 02:54:05;;;;;;;7.00;5.50;;;;;;;10.52;67.66;96890.08;103597;1267;2065605;-81
2022/05/14 02:56:35;;;;;;;8.00;5.50;;;;;;;10.47;67.79;96888.52;106450;1267;2015730;-81
2022/05/14 02:59:09;;;;;;;6.50;5.10;;;;;;;10.41;67.96;96890.27;107891;1267;57051;-80
2022/05/14 03:01:49;;;;;;;10.40;5.90;;;;;;;10.30;68.53;96896.41;107546;1267;148188;-80
2022/05/14 03:04:26;;;;;;;8.10;5.70;;;;;;;10.26;68.66;96898.27;105469;1268;2523480;-81
2022/05/14 03:06:59;;;;;;;10.50;6.40;;;;;;;10.33;68.80;96899.90;100058;1268;5165240;-80
2022/05/14 03:09:32;;;;;;;8.90;5.50;;;;;;;10.29;68.82;96895.98;105335;1268;2644741;-80
2022/05/14 03:12:04;;;;;;;8.30;5.30;;;;;;;10.06;69.61;96898.12;106253;1266;1831658;-80
2022/05/14 03:14:35;;;;;;;5.80;5.20;;;;;;;9.83;70.71;96905.61;105536;1267;2486523;-80
2022/05/14 03:17:10;;;;;;;7.10;5.10;;;;;;;9.66;71.71;96909.22;105141;1267;2075516;-80
2022/05/14 03:19:44;;;;;;;10.30;6.10;;;;;;;9.57;72.30;96910.38;104202;1267;1950789;-80
2022/05/14 03:22:16;;;;;;;8.80;6.30;;;;;;;9.65;72.06;96912.23;100163;1267;2331626;-80
2022/05/14 03:24:51;;;;;;;9.90;7.20;;;;;;;9.90;72.04;96910.20;107571;1267;140245;-80
2022/05/14 03:27:24;;;;;;;9.10;6.90;;;;;;;10.09;71.48;96909.55;105945;1267;1752058;-81
2022/05/14 03:29:56;;;;;;;8.20;6.70;;;;;;;10.26;71.07;96910.67;103140;1267;2790407;-80
2022/05/14 03:32:29;;;;;;;8.10;6.10;;;;;;;10.34;70.85;96911.55;106332;1267;1314323;-80
2022/05/14 03:35:05;;;;;;;13.20;7.00;;;;;;;10.29;70.77;96912.89;105106;1267;2241225;-81
2022/05/14 03:37:37;;;;;;;8.80;6.30;;;;;;;10.24;71.04;96912.63;104392;1267;2233743;-80
2022/05/14 03:40:10;;;;;;;10.00;7.00;;;;;;;10.17;70.98;96911.61;103570;1267;2182325;-81
2022/05/14 03:42:42;;;;;;;10.30;6.90;;;;;;;10.31;70.94;96910.86;105142;1268;2278083;-80
2022/05/14 03:45:14;;;;;;;10.50;6.60;;;;;;;10.51;70.79;96910.02;106696;1267;289341;-80
2022/05/14 03:47:45;;;;;;;10.30;7.60;;;;;;;10.73;70.61;96912.88;104429;1267;2054036;-80
2022/05/14 03:50:18;;;;;;;9.70;6.90;;;;;;;10.84;70.33;96913.93;107475;1267;159782;-80
2022/05/14 03:52:49;;;;;;;10.50;6.60;;;;;;;10.99;70.02;96915.46;106063;1267;1495111;-80
2022/05/14 03:55:22;;;;;;;10.30;6.60;;;;;;;11.16;69.79;96920.58;106541;1267;1211464;-80
2022/05/14 03:57:53;;;;;;;11.90;6.50;;;;;;;11.22;69.75;96918.94;105887;1267;2163722;-80
2022/05/14 04:00:26;;;;;;;8.70;6.90;;;;;;;11.26;69.39;96921.05;105861;1267;2025882;-80
2022/05/14 04:03:08;;;;;;;9.50;6.30;;;;;;;11.44;69.30;96919.61;99378;1267;2484780;-80
2022/05/14 04:05:43;;;;;;;10.70;6.50;;;;;;;11.59;68.78;96917.48;99326;1267;4462293;-80
2022/05/14 04:08:15;;;;;;;13.90;6.60;;;;;;;11.80;68.15;96922.55;105802;1267;1894539;-80
2022/05/14 04:10:46;;;;;;;8.70;6.50;;;;;;;12.00;68.73;96924.48;106274;1268;1262444;-77
2022/05/14 04:13:21;;;;;;;8.80;6.00;;;;;;;12.20;68.36;96921.05;99295;1267;4444959;-83
2022/05/14 04:16:00;;;;;;;8.10;6.60;;;;;;;12.42;68.17;96919.86;102689;1267;2375100;-82
2022/05/14 04:18:35;;;;;;;10.00;6.40;;;;;;;12.62;67.58;96921.52;103007;1267;5439407;-82
2022/05/14 04:21:06;;;;;;;8.90;6.00;;;;;;;12.81;67.36;96923.60;105060;1267;1830148;-80
2022/05/14 04:23:42;;;;;;;10.10;6.00;;;;;;;12.92;67.00;96926.11;107270;1268;224571;-80
2022/05/14 04:26:27;;;;;;;10.40;6.00;;;;;;;13.10;66.82;96925.16;104218;1268;2130206;-80
2022/05/14 04:29:03;;;;;;;11.00;5.60;;;;;;;13.34;66.43;96925.34;105888;1267;2258399;-80
2022/05/14 04:31:36;;;;;;;10.80;5.60;;;;;;;13.54;65.32;96924.84;107510;1267;142913;-81
2022/05/14 04:34:07;;;;;;;8.30;5.40;;;;;;;13.70;64.78;96922.36;106011;1267;2360093;-81
2022/05/14 04:36:47;;;;;;;7.50;5.40;;;;;;;13.92;64.74;96926.02;106242;1267;1782323;-81
2022/05/14 04:39:18;;;;;;;9.10;5.40;;;;;;;14.14;63.52;96929.00;106063;1267;2066196;-80
2022/05/14 04:41:50;;;;;;;7.80;5.10;;;;;;;14.37;62.70;96931.16;107535;1267;107551;-80
2022/05/14 04:44:21;;;;;;;13.10;5.80;;;;;;;14.62;61.75;96931.15;105182;1267;2015444;-82
2022/05/14 04:46:53;;;;;;;9.80;5.20;;;;;;;14.93;61.10;96927.46;106525;1267;1306604;-80
2022/05/14 04:49:27;;;;;;;8.80;4.80;;;;;;;15.32;60.64;96928.50;107605;1267;91872;-80
2022/05/14 04:52:03;;;;;;;7.70;4.40;;;;;;;16.45;59.73;96927.19;106064;1267;2069059;-81
2022/05/14 04:54:37;;;;;;;7.40;3.80;;;;;;;17.67;54.90;96932.87;107411;1267;270849;-80
2022/05/14 04:57:11;;;;;;;10.00;4.00;;;;;;;18.72;54.30;96932.58;107607;1267;158897;-80
2022/05/14 04:59:42;;;;;;;9.10;3.70;;;;;;;19.77;49.31;96937.46;107415;1268;266039;-81
2022/05/14 05:05:09;;;;;;;7.90;3.30;;;;;;;20.82;45.44;96934.63;107641;1267;184842;-81
2022/05/14 05:07:40;;;;;;;6.30;2.80;;;;;;;20.47;43.94;96938.63;105947;1267;2311035;-80
2022/05/14 05:10:14;;;;;;;7.10;3.30;;;;;;;20.69;44.13;96942.84;107839;1267;132805;-81
2022/05/14 05:12:46;;;;;;;3.80;2.70;;;;;;;21.08;43.81;96949.31;106242;1267;1707472;-80
2022/05/14 05:15:17;;;;;;;5.60;2.80;;;;;;;21.25;41.77;96948.38;104735;1267;2007835;-80
2022/05/14 05:17:48;;;;;;;5.30;3.00;;;;;;;20.47;40.77;96951.77;107690;1267;102469;-80
2022/05/14 05:20:25;;;;;;;6.30;2.90;;;;;;;19.97;41.86;96951.64;106652;1267;1549478;-80
2022/05/14 05:22:56;;;;;;;7.00;2.40;;;;;;;20.01;42.08;96953.86;106379;1267;1783606;-81
2022/05/14 05:25:28;;;;;;;7.10;2.70;;;;;;;19.93;41.06;96952.69;104328;1267;2534244;-81
2022/05/14 05:27:59;;;;;;;5.60;2.40;;;;;;;19.62;40.62;96954.51;107724;1267;95785;-82
2022/05/14 05:30:32;;;;;;;4.90;2.60;;;;;;;19.36;40.87;96958.74;107596;1267;163821;-81
2022/05/14 05:33:03;;;;;;;6.80;2.30;;;;;;;19.65;41.81;96960.34;107474;1267;249820;-82
2022/05/14 05:35:35;;;;;;;5.70;2.10;;;;;;;20.13;41.22;96962.45;106560;1267;1429828;-81
2022/05/14 05:38:06;;;;;;;6.10;2.20;;;;;;;20.17;41.09;96957.91;106774;1265;1270963;-81
2022/05/14 05:40:37;;;;;;;5.50;2.50;;;;;;;19.76;41.80;96960.36;106160;1267;2033301;-81
2022/05/14 05:43:10;;;;;;;6.30;3.20;;;;;;;19.89;41.86;96961.05;106617;1267;1563240;-79
2022/05/14 05:45:45;;;;;;;6.70;3.00;;;;;;;20.18;41.03;96960.68;106842;1267;1164062;-82
2022/05/14 05:48:16;;;;;;;4.80;2.50;;;;;;;21.16;41.83;96959.59;107541;1267;97150;-81
2022/05/14 05:50:49;;;;;;;5.50;2.70;;;;;;;21.58;38.35;96955.70;107481;1267;151993;-80
2022/05/14 05:56:46;;;;;;;9.10;2.50;;;;;;;20.54;38.86;96959.48;107378;1267;141195;-81
2022/05/14 05:59:32;;;;;;;5.00;2.50;;;;;;;19.27;40.10;96962.85;98415;1267;5374268;-79
2022/05/14 06:02:04;;;;;;;9.60;2.80;;;;;;;19.08;40.82;96966.16;107303;1267;233450;-78
2022/05/14 06:04:36;;;;;;;5.70;2.10;;;;;;;18.68;40.40;96967.25;107276;1267;181554;-78
2022/05/14 06:07:07;;;;;;;6.80;2.60;;;;;;;18.63;41.00;96968.20;106500;1267;1237220;-79
2022/05/14 06:09:39;;;;;;;5.50;1.90;;;;;;;19.23;40.06;96965.02;106067;1267;1814467;-80
2022/05/14 06:12:12;;;;;;;4.70;2.00;;;;;;;19.49;39.26;96962.62;107808;1267;105257;-79
2022/05/14 06:14:45;;;;;;;4.90;2.00;;;;;;;19.90;38.91;96960.84;106729;1267;1352687;-77
2022/05/14 06:17:16;;;;;;;4.80;2.30;;;;;;;20.54;39.04;96962.55;107300;1267;148407;-79
2022/05/14 06:19:49;;;;;;;4.90;1.80;;;;;;;21.66;38.46;96958.51;107403;1267;141889;-79
2022/05/14 06:22:21;;;;;;;5.10;2.40;;;;;;;22.75;36.89;96962.64;106358;1266;1490320;-80
2022/05/14 06:24:52;;;;;;;4.40;2.20;;;;;;;23.69;35.67;96962.14;107493;1267;134202;-79
2022/05/14 06:27:24;;;;;;;5.90;2.50;;;;;;;24.31;34.89;96959.39;107419;1267;125190;-80
2022/05/14 06:29:55;;;;;;;6.40;2.30;;;;;;;24.70;33.12;96964.67;108492;1267;22598;-81
2022/05/14 06:32:26;;;;;;;5.40;2.40;;;;;;;24.53;32.35;96955.70;105675;1268;1998233;-80
2022/05/14 06:34:58;;;;;;;4.40;2.20;;;;;;;24.36;32.56;96956.06;107124;1267;267615;-79
2022/05/14 06:37:29;;;;;;;7.30;2.60;;;;;;;24.77;31.99;96952.69;107444;1267;133480;-81
2022/05/14 06:40:01;;;;;;;5.00;2.10;;;;;;;24.92;31.31;96950.23;107305;1267;219131;-81
2022/05/14 06:42:33;;;;;;;4.90;2.20;;;;;;;25.14;31.91;96945.56;107467;1267;156562;-81
2022/05/14 06:45:05;;;;;;;5.00;2.50;;;;;;;25.32;31.57;96941.96;107653;1267;105356;-79
2022/05/14 07:38:01;;;;;;;4.30;2.00;;;;;;;34.01;24.73;96924.03;103987;1306;545172;-80
2022/05/14 07:40:36;;;;;;;3.60;1.80;;;;;;;34.88;22.97;96930.23;106849;1281;95010;-79
2022/05/14 07:43:11;;;;;;;3.50;1.70;;;;;;;34.62;22.39;96923.27;106798;1281;110391;-80
2022/05/14 07:45:44;;;;;;;4.80;2.20;;;;;;;35.48;23.20;96929.81;107206;1272;113677;-79
2022/05/14 07:48:21;;;;;;;5.00;2.00;;;;;;;36.68;23.07;96927.95;107499;1274;60998;-79
2022/05/14 07:50:53;;;;;;;4.00;1.80;;;;;;;37.64;22.15;96921.12;107348;1271;182179;-80
2022/05/14 07:53:30;;;;;;;5.40;1.80;;;;;;;37.93;21.93;96926.58;107660;1271;89895;-79
2022/05/14 07:56:02;;;;;;;5.60;2.40;;;;;;;37.04;20.12;96932.55;107443;1271;178890;-79
2022/05/14 07:58:34;;;;;;;4.50;2.10;;;;;;;36.25;21.25;96937.30;107312;1271;107294;-79
2022/05/14 08:01:06;;;;;;;3.50;1.60;;;;;;;36.44;21.03;96938.73;107449;1271;212756;-80
2022/05/14 08:03:38;;;;;;;2.90;1.70;;;;;;;36.18;19.90;96937.04;108021;1267;72589;-80
2022/05/14 08:06:11;;;;;;;4.90;2.00;;;;;;;36.24;21.54;96935.42;108104;1267;38104;-80
2022/05/14 08:08:42;;;;;;;4.10;2.10;;;;;;;36.84;19.77;96935.95;106734;1267;1790068;-80
2022/05/14 08:11:14;;;;;;;3.00;1.90;;;;;;;34.51;19.04;96937.63;108108;1268;35460;-81
2022/05/14 08:13:45;;;;;;;4.50;2.20;;;;;;;34.26;21.62;96930.80;108013;1268;38440;-81
2022/05/14 08:16:18;;;;;;;4.20;2.00;;;;;;;35.27;20.43;96931.64;107956;1265;101296;-80
2022/05/14 08:18:49;;;;;;;3.10;2.00;;;;;;;34.44;20.02;96937.98;108053;1268;41870;-81
2022/05/14 08:27:00;;;;;;;3.70;1.80;;;;;;;32.17;21.27;96932.65;108010;1268;59893;-81
2022/05/14 08:29:32;;;;;;;4.40;1.70;;;;;;;30.40;22.80;96936.64;108156;1268;34522;-80
2022/05/14 08:32:03;;;;;;;4.70;1.70;;;;;;;28.37;23.76;96940.75;107930;1268;48674;-80
2022/05/14 08:34:35;;;;;;;5.00;1.80;;;;;;;26.00;25.80;96946.17;107880;1268;56244;-80
2022/05/14 08:37:07;;;;;;;4.60;2.00;;;;;;;25.40;26.91;96939.83;108068;1267;65336;-80
2022/05/14 08:39:39;;;;;;;4.80;1.80;;;;;;;25.60;26.57;96941.02;108215;1265;33740;-78
2022/05/14 08:42:13;;;;;;;4.20;1.90;;;;;;;24.79;27.93;96941.89;108140;1265;47752;-78
2022/05/14 08:44:46;;;;;;;3.80;2.10;;;;;;;25.42;27.76;96935.27;108032;1265;63331;-77
2022/05/14 08:47:29;;;;;;;4.40;2.00;;;;;;;24.63;28.82;96934.95;108081;1268;36666;-78
2022/05/14 08:50:02;;;;;;;6.60;3.40;;;;;;;23.64;29.75;96936.66;108107;1265;54715;-78
2022/05/14 08:52:35;;;;;;;14.60;7.70;;;;;;;22.45;31.55;96938.52;107899;1268;59536;-78
2022/05/14 08:55:09;;;;;;;18.90;9.80;;;;;;;22.05;32.26;96936.09;108094;1268;51858;-78
2022/05/14 08:57:50;;;;;;;9.30;5.90;;;;;;;23.37;32.03;96925.61;107955;1268;1423075;-78
2022/05/14 09:00:22;;;;;;;8.70;4.60;;;;;;;22.36;31.91;96924.37;107941;1268;114168;-78
2022/05/14 09:02:55;;;;;;;6.90;2.40;;;;;;;20.96;34.10;96929.13;107839;1268;110790;-77
2022/05/14 09:05:30;;;;;;;4.70;1.80;;;;;;;20.96;33.66;96928.45;107914;1266;115513;-78
2022/05/14 09:08:01;;;;;;;4.20;2.10;;;;;;;21.02;33.94;96928.89;108038;1268;57607;-76
2022/05/14 09:10:36;;;;;;;6.10;2.20;;;;;;;21.18;34.68;96924.27;107979;1267;71725;-76
2022/05/14 09:13:19;;;;;;;6.60;1.90;;;;;;;20.91;34.94;96918.91;108022;1267;41402;-75
2022/05/14 09:15:55;;;;;;;6.50;2.20;;;;;;;20.36;35.60;96918.00;107952;1268;41877;-72
2022/05/14 09:18:31;;;;;;;4.90;2.40;;;;;;;19.58;36.40;96916.83;107920;1267;57765;-79
2022/05/14 09:21:04;;;;;;;4.50;2.00;;;;;;;19.87;36.57;96915.32;107905;1267;96722;-77
2022/05/14 09:23:43;;;;;;;9.40;2.20;;;;;;;19.61;35.94;96917.08;108115;1268;34596;-75
2022/05/14 09:26:19;;;;;;;4.30;2.10;;;;;;;19.19;37.35;96921.15;107849;1267;91636;-75
2022/05/14 09:28:53;;;;;;;5.00;2.30;;;;;;;18.71;38.19;96925.23;107886;1266;34486;-75
2022/05/14 09:31:32;;;;;;;7.10;2.50;;;;;;;18.24;39.20;96923.30;107830;1268;40656;-75
2022/05/14 09:34:06;;;;;;;4.40;1.90;;;;;;;18.33;40.25;96920.55;108458;1267;41119;-76
2022/05/14 09:36:39;;;;;;;3.80;1.60;;;;;;;18.92;40.09;96905.75;108144;1265;46305;-76
2022/05/14 09:39:15;;;;;;;4.40;2.10;;;;;;;19.39;38.91;96905.27;108187;1265;31635;-75
2022/05/14 09:41:49;;;;;;;7.00;2.50;;;;;;;19.51;38.62;96903.25;108063;1265;36973;-74
2022/05/14 09:44:24;;;;;;;6.20;2.40;;;;;;;19.53;38.51;96889.70;108061;1265;42289;-75
2022/05/14 09:47:08;;;;;;;6.50;1.90;;;;;;;19.14;39.07;96891.70;108108;1268;65637;-75
2022/05/14 09:49:41;;;;;;;8.70;3.80;;;;;;;18.94;39.29;96880.36;108210;1265;40500;-74
2022/05/14 09:52:14;;;;;;;4.60;1.80;;;;;;;19.07;39.36;96883.55;107982;1265;42669;-74
2022/05/14 09:54:48;;;;;;;5.60;2.50;;;;;;;19.08;38.24;96882.34;108051;1265;42717;-73
2022/05/14 09:57:45;;;;;;;6.00;2.10;;;;;;;18.90;38.45;96881.58;108135;1265;34048;-75
2022/05/14 10:00:21;;;;;;;5.70;1.90;;;;;;;18.79;39.76;96884.14;108077;1265;42742;-76
2022/05/14 10:03:05;;;;;;;5.50;2.50;;;;;;;18.82;39.00;96888.70;108027;1268;45476;-77
2022/05/14 10:05:50;;;;;;;6.00;2.30;;;;;;;19.14;39.85;96879.98;108104;1265;46073;-77
2022/05/14 10:08:37;;;;;;;5.00;2.10;;;;;;;19.67;39.65;96882.70;108056;1268;35228;-76
2022/05/14 10:11:15;;;;;;;5.50;2.10;;;;;;;19.55;38.65;96879.41;108080;1268;38283;-75
2022/05/14 10:14:07;;;;;;;6.50;1.80;;;;;;;19.07;38.42;96875.02;107915;1268;33159;-73
2022/05/14 10:16:46;;;;;;;5.10;1.90;;;;;;;18.94;38.77;96874.67;107967;1267;45350;-78
2022/05/14 10:19:55;;;;;;;7.10;2.50;;;;;;;19.04;39.03;96868.13;108052;1268;32279;-76
2022/05/14 10:26:44;;;;;;;3.50;1.80;;;;;;;19.07;39.36;96870.70;108016;1265;36455;-77
2022/05/14 10:28:35;;;;;;;5.00;1.80;;;;;;;19.24;39.16;96864.20;108114;1267;43956;-77
2022/05/14 10:31:11;;;;;;;4.00;1.80;;;;;;;19.32;38.49;96864.89;108106;1266;43635;-76
2022/05/14 10:33:42;;;;;;;5.60;1.90;;;;;;;18.91;38.94;96861.92;107835;1268;67188;-77
2022/05/14 10:36:21;;;;;;;5.60;2.00;;;;;;;18.91;39.18;96856.90;108033;1268;53110;-77
2022/05/14 10:38:56;;;;;;;4.90;1.80;;;;;;;19.07;39.54;96853.21;108113;1266;38607;-77
2022/05/14 10:41:33;;;;;;;4.50;1.50;;;;;;;19.26;39.36;96849.54;108005;1268;37001;-76
2022/05/14 10:44:10;;;;;;;6.20;2.30;;;;;;;19.38;38.79;96845.30;107916;1268;46647;-77
2022/05/14 10:46:42;;;;;;;4.80;1.90;;;;;;;19.32;39.38;96853.98;107884;1268;46743;-76
2022/05/14 10:49:20;;;;;;;9.00;2.10;;;;;;;19.56;38.16;96852.26;107903;1268;40418;-76
2022/05/14 10:51:55;;;;;;;4.20;1.80;;;;;;;19.22;37.88;96853.23;107947;1268;33541;-77
2022/05/14 10:54:27;;;;;;;2.20;1.80;;;;;;;19.34;39.02;96848.59;107955;1267;38934;-76
2022/05/14 10:57:01;;;;;;;5.60;1.80;;;;;;;19.61;37.46;96846.98;107943;1267;32711;-77
2022/05/14 10:59:37;;;;;;;4.40;1.70;;;;;;;20.03;38.20;96844.45;108016;1268;35989;-76
2022/05/14 11:02:14;;;;;;;4.50;1.80;;;;;;;20.12;36.84;96835.84;108053;1267;49188;-76
2022/05/14 11:04:51;;;;;;;3.60;1.70;;;;;;;20.01;37.48;96841.85;107867;1268;40499;-76
2022/05/14 11:07:32;;;;;;;3.80;1.70;;;;;;;20.28;37.10;96839.50;107917;1268;36824;-76
2022/05/14 11:10:20;;;;;;;4.70;1.80;;;;;;;20.44;36.91;96836.41;107988;1267;41120;-76
2022/05/14 11:12:51;;;;;;;5.00;1.90;;;;;;;20.66;37.63;96829.35;107975;1267;39100;-76
2022/05/14 11:15:25;;;;;;;5.90;2.00;;;;;;;20.77;36.09;96837.02;108056;1268;48330;-76
2022/05/14 11:18:07;;;;;;;5.20;2.00;;;;;;;20.38;35.66;96836.27;108108;1265;44477;-76
2022/05/14 11:20:40;;;;;;;6.10;2.40;;;;;;;19.97;35.80;96838.06;108028;1267;71212;-76
2022/05/14 11:23:14;;;;;;;6.40;2.40;;;;;;;19.82;37.01;96839.65;108027;1268;45033;-77
2022/05/14 11:25:45;;;;;;;5.30;2.10;;;;;;;20.23;37.77;96836.27;107980;1267;39231;-76
2022/05/14 11:28:28;;;;;;;3.40;2.10;;;;;;;20.69;37.58;96837.75;107987;1267;34224;-77
2022/05/14 11:31:16;;;;;;;5.30;2.40;;;;;;;21.09;37.20;96832.05;108094;1265;46350;-77
2022/05/14 11:33:49;;;;;;;5.10;2.00;;;;;;;21.13;37.88;96832.09;108130;1265;44305;-77
2022/05/14 11:36:28;;;;;;;4.80;2.10;;;;;;;21.33;37.21;96828.83;108062;1265;50044;-77
2022/05/14 11:39:31;;;;;;;5.10;2.30;;;;;;;21.33;37.54;96833.10;108076;1265;48633;-77
2022/05/14 11:42:25;;;;;;;4.30;2.00;;;;;;;21.16;36.64;96831.77;108087;1265;39618;-77
2022/05/14 11:45:03;;;;;;;5.90;1.80;;;;;;;21.11;37.24;96824.01;108091;1267;52165;-77
2022/05/14 11:47:59;;;;;;;6.40;2.20;;;;;;;21.03;36.91;96833.94;108079;1265;35470;-77
2022/05/14 11:50:37;;;;;;;4.90;1.90;;;;;;;21.00;35.58;96829.09;108080;1266;37167;-77
2022/05/14 11:53:33;;;;;;;6.00;2.20;;;;;;;20.78;37.10;96831.59;107937;1268;72120;-77
2022/05/14 11:56:15;;;;;;;5.00;2.20;;;;;;;20.92;37.41;96830.13;107916;1266;48445;-77
2022/05/14 11:58:55;;;;;;;3.40;1.80;;;;;;;21.01;36.69;96827.42;107878;1267;46579;-77
2022/05/14 12:01:31;;;;;;;7.00;1.90;;;;;;;20.66;36.26;96827.60;108069;1265;33070;-77
2022/05/14 12:04:09;;;;;;;4.70;1.70;;;;;;;20.62;37.44;96835.23;108095;1265;49005;-76
2022/05/14 12:06:57;;;;;;;4.20;2.00;;;;;;;20.77;37.08;96833.92;108003;1267;45933;-77
2022/05/14 12:09:46;;;;;;;5.60;2.10;;;;;;;21.04;38.17;96831.97;107913;1268;37546;-76
2022/05/14 12:12:23;;;;;;;5.00;2.40;;;;;;;20.96;37.25;96824.20;107916;1267;59053;-76
2022/05/14 12:14:58;;;;;;;7.70;2.40;;;;;;;20.69;36.64;96826.75;107885;1267;42039;-77
2022/05/14 12:17:31;;;;;;;4.40;1.80;;;;;;;20.63;37.65;96832.20;107990;1268;36396;-76
2022/05/14 12:20:03;;;;;;;4.90;2.00;;;;;;;20.52;36.72;96827.38;107997;1268;41665;-77
2022/05/14 12:22:36;;;;;;;7.80;2.30;;;;;;;20.38;37.28;96826.98;107903;1268;33951;-76
2022/05/14 12:25:10;;;;;;;4.70;2.00;;;;;;;20.25;36.76;96830.02;108104;1265;36526;-76
2022/05/14 12:27:50;;;;;;;5.20;2.10;;;;;;;20.30;38.00;96828.32;108012;1265;36054;-76
2022/05/14 12:33:31;;;;;;;4.30;1.90;;;;;;;20.11;36.63;96826.48;107702;1268;54369;-77
2022/05/14 12:36:00;;;;;;;;;;;;;;;20.14;36.79;96822.67;107955;1266;33320;-77
2022/05/14 12:38:34;;;;;;;6.20;1.90;;;;;;;20.22;36.67;96824.37;108055;1265;38905;-74
2022/05/14 12:41:07;;;;;;;5.90;2.30;;;;;;;20.27;36.34;96818.48;107895;1267;39686;-77
2022/05/14 12:43:42;;;;;;;6.10;2.10;;;;;;;20.31;36.77;96822.23;108159;1264;34942;-76
2022/05/14 12:46:14;;;;;;;10.00;2.60;;;;;;;20.56;37.03;96823.18;108059;1265;43142;-77
2022/05/14 12:48:48;;;;;;;3.80;2.40;;;;;;;20.60;35.92;96822.86;107996;1268;39024;-77
2022/05/14 12:51:23;;;;;;;7.20;3.00;;;;;;;20.48;35.76;96814.16;108100;1265;37371;-76
2022/05/14 12:53:55;;;;;;;5.20;2.80;;;;;;;20.41;36.01;96818.16;107948;1267;37573;-76
2022/05/14 12:56:32;;;;;;;7.20;2.70;;;;;;;20.64;36.44;96810.07;107890;1267;44179;-74
2022/05/14 12:59:05;;;;;;;10.70;3.30;;;;;;;20.53;35.12;96809.27;107961;1268;35628;-77
2022/05/14 13:01:36;;;;;;;7.60;3.80;;;;;;;20.37;35.75;96807.03;107895;1267;42650;-77
2022/05/14 13:04:11;;;;;;;8.00;2.80;;;;;;;20.16;36.07;96812.02;108091;1265;35430;-77
2022/05/14 13:06:45;;;;;;;10.90;3.70;;;;;;;20.08;36.35;96813.02;107979;1267;35103;-77
2022/05/14 13:09:23;;;;;;;5.00;2.50;;;;;;;20.20;35.67;96811.30;108112;1265;29729;-77